createdAt,value
2017-07-21T00:01:08.802Z,0
2017-07-21T00:02:19.057Z,0
2017-07-21T00:03:28.656Z,0
2017-07-21T00:04:38.564Z,0
2017-07-21T00:05:48.209Z,0
2017-07-21T00:06:58.138Z,0
2017-07-21T00:08:08.040Z,0
2017-07-21T00:09:18.048Z,0
2017-07-21T00:10:27.644Z,0
2017-07-21T00:11:37.868Z,0
2017-07-21T00:12:47.776Z,0
2017-07-21T00:13:57.997Z,0
2017-07-21T00:15:07.779Z,0
2017-07-21T00:16:17.689Z,0
2017-07-21T00:17:27.593Z,0
2017-07-21T00:18:37.183Z,0
2017-07-21T00:19:46.797Z,0
2017-07-21T00:20:57.018Z,0
2017-07-21T00:22:07.259Z,0
2017-07-21T00:23:17.169Z,0
2017-07-21T00:24:26.785Z,0
2017-07-21T00:25:36.084Z,0
2017-07-21T00:26:45.997Z,0
2017-07-21T00:27:55.595Z,0
2017-07-21T00:29:05.523Z,0
2017-07-21T00:30:15.744Z,0
2017-07-21T00:31:25.655Z,0
2017-07-21T00:32:35.642Z,0
2017-07-21T00:33:45.551Z,0
2017-07-21T00:34:55.473Z,0
2017-07-21T00:36:05.708Z,0
2017-07-21T00:37:15.921Z,0
2017-07-21T00:38:25.830Z,0
2017-07-21T00:39:35.438Z,0
2017-07-21T00:40:45.043Z,0
2017-07-21T00:41:54.954Z,0
2017-07-21T00:43:05.171Z,0
2017-07-21T00:44:15.708Z,0
2017-07-21T00:45:25.935Z,0
2017-07-21T00:46:35.844Z,0
2017-07-21T00:47:45.448Z,0
2017-07-21T00:48:55.054Z,0
2017-07-21T00:50:04.718Z,0
2017-07-21T00:51:14.322Z,0
2017-07-21T00:52:24.567Z,0
2017-07-21T00:53:34.161Z,0
2017-07-21T00:54:44.388Z,0
2017-07-21T00:55:54.453Z,0
2017-07-21T00:57:04.373Z,0
2017-07-21T00:58:14.598Z,0
2017-07-21T00:59:24.820Z,0
2017-07-21T01:00:35.051Z,0
2017-07-21T01:01:45.414Z,0
2017-07-21T01:02:55.325Z,0
2017-07-21T01:04:05.241Z,0
2017-07-21T01:05:14.876Z,0
2017-07-21T01:06:25.120Z,0
2017-07-21T01:07:35.345Z,0
2017-07-21T01:08:45.566Z,0
2017-07-21T01:09:55.798Z,0
2017-07-21T01:11:05.101Z,0
2017-07-21T01:12:15.019Z,0
2017-07-21T01:13:25.254Z,0
2017-07-21T01:14:34.866Z,0
2017-07-21T01:15:45.084Z,0
2017-07-21T01:16:54.689Z,0
2017-07-21T01:18:04.607Z,0
2017-07-21T01:19:14.971Z,0
2017-07-21T01:20:25.186Z,0
2017-07-21T01:21:35.120Z,0
2017-07-21T01:22:45.337Z,0
2017-07-21T01:23:55.563Z,0
2017-07-21T01:25:05.638Z,0
2017-07-21T01:26:15.547Z,0
2017-07-21T01:27:25.485Z,0
2017-07-21T01:28:35.099Z,0
2017-07-21T01:29:44.699Z,0
2017-07-21T01:30:54.915Z,0
2017-07-21T01:32:04.832Z,0
2017-07-21T01:33:14.753Z,0
2017-07-21T01:34:24.975Z,0
2017-07-21T01:35:34.575Z,0
2017-07-21T01:36:44.325Z,0
2017-07-21T01:37:54.283Z,0
2017-07-21T01:39:03.889Z,0
2017-07-21T01:40:13.810Z,0
2017-07-21T01:41:23.410Z,0
2017-07-21T01:42:33.037Z,0
2017-07-21T01:43:42.333Z,0
2017-07-21T01:44:52.245Z,0
2017-07-21T01:46:02.186Z,0
2017-07-21T01:47:12.099Z,0
2017-07-21T01:48:22.019Z,0
2017-07-21T01:49:31.937Z,0
2017-07-21T01:50:41.547Z,0
2017-07-21T01:51:51.451Z,0
2017-07-21T01:53:01.681Z,0
2017-07-21T01:54:11.462Z,0
2017-07-21T01:55:21.079Z,0
2017-07-21T01:56:30.991Z,0
2017-07-21T01:57:41.208Z,0
2017-07-21T01:58:50.819Z,0
2017-07-21T02:00:00.575Z,0
2017-07-21T02:01:09.889Z,0
2017-07-21T02:02:20.100Z,0
2017-07-21T02:03:30.008Z,0
2017-07-21T02:04:39.942Z,0
2017-07-21T02:05:50.205Z,0
2017-07-21T02:07:00.113Z,0
2017-07-21T02:08:10.020Z,0
2017-07-21T02:09:20.243Z,0
2017-07-21T02:10:29.555Z,0
2017-07-21T02:11:39.520Z,0
2017-07-21T02:12:49.135Z,0
2017-07-21T02:13:59.060Z,0
2017-07-21T02:15:08.974Z,0
2017-07-21T02:16:19.217Z,0
2017-07-21T02:17:29.443Z,0
2017-07-21T02:18:39.353Z,0
2017-07-21T02:19:48.957Z,0
2017-07-21T02:20:58.873Z,0
2017-07-21T02:22:08.486Z,0
2017-07-21T02:23:18.242Z,0
2017-07-21T02:24:27.864Z,0
2017-07-21T02:25:37.468Z,0
2017-07-21T02:26:47.693Z,0
2017-07-21T02:27:57.919Z,0
2017-07-21T02:29:07.592Z,0
2017-07-21T02:30:17.517Z,0
2017-07-21T02:31:27.430Z,0
2017-07-21T02:32:37.656Z,0
2017-07-21T02:33:47.253Z,0
2017-07-21T02:34:57.639Z,0
2017-07-21T02:36:07.563Z,0
2017-07-21T02:37:17.474Z,0
2017-07-21T02:38:27.397Z,0
2017-07-21T02:39:37.320Z,0
2017-07-21T02:40:46.621Z,0
2017-07-21T02:41:56.835Z,0
2017-07-21T02:43:06.443Z,0
2017-07-21T02:44:16.054Z,0
2017-07-21T02:45:26.015Z,0
2017-07-21T02:46:36.246Z,0
2017-07-21T02:47:46.153Z,0
2017-07-21T02:48:56.380Z,0
2017-07-21T02:50:06.630Z,0
2017-07-21T02:51:16.551Z,0
2017-07-21T02:52:26.793Z,0
2017-07-21T02:53:36.714Z,0
2017-07-21T02:54:46.959Z,0
2017-07-21T02:55:56.882Z,0
2017-07-21T02:57:06.819Z,0
2017-07-21T02:58:17.053Z,0
2017-07-21T02:59:26.970Z,0
2017-07-21T03:00:36.883Z,0
2017-07-21T03:01:46.498Z,0
2017-07-21T03:02:56.107Z,0
2017-07-21T03:04:05.722Z,0
2017-07-21T03:05:15.946Z,0
2017-07-21T03:06:25.883Z,0
2017-07-21T03:07:35.833Z,0
2017-07-21T03:08:45.145Z,0
2017-07-21T03:09:55.508Z,0
2017-07-21T03:11:05.748Z,0
2017-07-21T03:12:15.972Z,0
2017-07-21T03:13:25.882Z,0
2017-07-21T03:14:35.790Z,4
2017-07-21T03:15:46.008Z,4
2017-07-21T03:16:55.917Z,0
2017-07-21T03:18:06.155Z,4
2017-07-21T03:19:16.594Z,4
2017-07-21T03:20:25.898Z,4
2017-07-21T03:21:35.509Z,4
2017-07-21T03:22:45.726Z,8
2017-07-21T03:23:55.937Z,8
2017-07-21T03:25:05.545Z,8
2017-07-21T03:26:15.803Z,12
2017-07-21T03:27:25.728Z,8
2017-07-21T03:28:35.325Z,12
2017-07-21T03:29:45.243Z,16
2017-07-21T03:30:54.850Z,12
2017-07-21T03:32:05.060Z,16
2017-07-21T03:33:14.961Z,20
2017-07-21T03:34:24.882Z,24
2017-07-21T03:35:34.492Z,28
2017-07-21T03:36:44.722Z,28
2017-07-21T03:37:54.638Z,32
2017-07-21T03:39:04.238Z,32
2017-07-21T03:40:14.168Z,36
2017-07-21T03:41:23.781Z,40
2017-07-21T03:42:33.402Z,44
2017-07-21T03:43:43.622Z,48
2017-07-21T03:44:53.228Z,52
2017-07-21T03:46:03.436Z,60
2017-07-21T03:47:13.648Z,64
2017-07-21T03:48:23.857Z,68
2017-07-21T03:49:34.077Z,76
2017-07-21T03:50:43.721Z,80
2017-07-21T03:51:53.329Z,88
2017-07-21T03:53:03.561Z,96
2017-07-21T03:54:13.492Z,100
2017-07-21T03:55:23.710Z,112
2017-07-21T03:56:33.641Z,116
2017-07-21T03:57:43.876Z,124
2017-07-21T03:58:54.095Z,136
2017-07-21T04:00:04.014Z,140
2017-07-21T04:01:13.321Z,148
2017-07-21T04:02:23.227Z,156
2017-07-21T04:03:33.447Z,164
2017-07-21T04:04:43.377Z,172
2017-07-21T04:05:52.972Z,180
2017-07-21T04:07:02.582Z,192
2017-07-21T04:08:12.497Z,204
2017-07-21T04:09:22.422Z,216
2017-07-21T04:10:32.033Z,228
2017-07-21T04:11:41.963Z,240
2017-07-21T04:12:52.253Z,248
2017-07-21T04:14:02.179Z,264
2017-07-21T04:15:12.406Z,276
2017-07-21T04:16:22.650Z,292
2017-07-21T04:17:32.246Z,304
2017-07-21T04:18:42.539Z,312
2017-07-21T04:19:52.475Z,328
2017-07-21T04:21:02.112Z,340
2017-07-21T04:22:11.725Z,348
2017-07-21T04:23:21.326Z,360
2017-07-21T04:24:31.014Z,372
2017-07-21T04:25:40.434Z,384
2017-07-21T04:26:50.367Z,392
2017-07-21T04:27:59.991Z,400
2017-07-21T04:29:10.221Z,408
2017-07-21T04:30:20.150Z,420
2017-07-21T04:31:30.370Z,432
2017-07-21T04:32:40.291Z,440
2017-07-21T04:33:50.211Z,456
2017-07-21T04:35:00.127Z,468
2017-07-21T04:36:09.425Z,480
2017-07-21T04:37:19.341Z,492
2017-07-21T04:38:29.274Z,500
2017-07-21T04:39:38.885Z,512
2017-07-21T04:40:48.190Z,528
2017-07-21T04:41:58.425Z,540
2017-07-21T04:43:08.657Z,548
2017-07-21T04:44:18.584Z,556
2017-07-21T04:45:28.823Z,556
2017-07-21T04:46:38.735Z,536
2017-07-21T04:47:48.984Z,560
2017-07-21T04:48:58.348Z,580
2017-07-21T04:50:08.576Z,564
2017-07-21T04:51:18.802Z,564
2017-07-21T04:52:28.735Z,580
2017-07-21T04:53:38.970Z,608
2017-07-21T04:54:49.202Z,616
2017-07-21T04:55:58.825Z,640
2017-07-21T04:57:08.747Z,636
2017-07-21T04:58:18.667Z,636
2017-07-21T04:59:28.584Z,660
2017-07-21T05:00:37.883Z,676
2017-07-21T05:01:47.523Z,676
2017-07-21T05:02:57.742Z,692
2017-07-21T05:04:07.982Z,712
2017-07-21T05:05:18.206Z,728
2017-07-21T05:06:28.445Z,728
2017-07-21T05:07:38.345Z,728
2017-07-21T05:08:47.982Z,752
2017-07-21T05:09:57.627Z,756
2017-07-21T05:11:07.594Z,784
2017-07-21T05:12:17.532Z,832
2017-07-21T05:13:27.761Z,876
2017-07-21T05:14:37.361Z,892
2017-07-21T05:15:47.292Z,908
2017-07-21T05:16:56.913Z,956
2017-07-21T05:18:07.404Z,1028
2017-07-21T05:19:17.341Z,1128
2017-07-21T05:20:27.580Z,1344
2017-07-21T05:21:37.821Z,1636
2017-07-21T05:22:47.762Z,1856
2017-07-21T05:23:58.019Z,1996
2017-07-21T05:25:07.942Z,2080
2017-07-21T05:26:17.565Z,2128
2017-07-21T05:27:27.793Z,2216
2017-07-21T05:28:37.456Z,2332
2017-07-21T05:29:47.375Z,2384
2017-07-21T05:30:57.609Z,2588
2017-07-21T05:32:07.575Z,2452
2017-07-21T05:33:17.491Z,2436
2017-07-21T05:34:27.728Z,2536
2017-07-21T05:35:37.961Z,2700
2017-07-21T05:36:47.897Z,2820
2017-07-21T05:37:57.555Z,2844
2017-07-21T05:39:07.482Z,2864
2017-07-21T05:40:17.400Z,2844
2017-07-21T05:41:27.010Z,2796
2017-07-21T05:42:36.931Z,2872
2017-07-21T05:43:46.537Z,2948
2017-07-21T05:44:56.473Z,2996
2017-07-21T05:46:06.458Z,3048
2017-07-21T05:47:16.394Z,3120
2017-07-21T05:48:26.002Z,3176
2017-07-21T05:49:35.913Z,4000
2017-07-21T05:50:46.152Z,3660
2017-07-21T05:51:56.071Z,3684
2017-07-21T05:53:06.303Z,3228
2017-07-21T05:54:16.233Z,3468
2017-07-21T05:55:26.156Z,3580
2017-07-21T05:56:36.105Z,3728
2017-07-21T05:57:45.429Z,3880
2017-07-21T05:58:55.343Z,4056
2017-07-21T06:00:04.960Z,4276
2017-07-21T06:01:14.577Z,4752
2017-07-21T06:02:24.493Z,8136
2017-07-21T06:03:34.099Z,14052
2017-07-21T06:04:44.327Z,18240
2017-07-21T06:05:54.550Z,22272
2017-07-21T06:07:04.181Z,25184
2017-07-21T06:08:14.146Z,24384
2017-07-21T06:09:23.756Z,20416
2017-07-21T06:10:33.860Z,18976
2017-07-21T06:11:43.779Z,10132
2017-07-21T06:12:53.714Z,5888
2017-07-21T06:14:03.666Z,5472
2017-07-21T06:15:13.580Z,5300
2017-07-21T06:16:23.543Z,5364
2017-07-21T06:17:33.826Z,6072
2017-07-21T06:18:43.791Z,12192
2017-07-21T06:19:54.006Z,14484
2017-07-21T06:21:03.947Z,8028
2017-07-21T06:22:13.884Z,4928
2017-07-21T06:23:23.497Z,4464
2017-07-21T06:24:33.418Z,4288
2017-07-21T06:25:42.722Z,4236
2017-07-21T06:26:52.325Z,4224
2017-07-21T06:28:02.555Z,4244
2017-07-21T06:29:12.479Z,4280
2017-07-21T06:30:22.418Z,4332
2017-07-21T06:31:32.648Z,4424
2017-07-21T06:32:42.565Z,4532
2017-07-21T06:33:52.177Z,4644
2017-07-21T06:35:02.099Z,4740
2017-07-21T06:36:11.740Z,4840
2017-07-21T06:37:21.735Z,5204
2017-07-21T06:38:31.706Z,5664
2017-07-21T06:39:41.312Z,5496
2017-07-21T06:40:51.539Z,5204
2017-07-21T06:42:01.467Z,4876
2017-07-21T06:43:11.409Z,3752
2017-07-21T06:44:21.653Z,2340
2017-07-21T06:45:31.880Z,1784
2017-07-21T06:46:41.800Z,1640
2017-07-21T06:47:51.732Z,1628
2017-07-21T06:49:01.962Z,1616
2017-07-21T06:50:12.208Z,1616
2017-07-21T06:51:22.140Z,1616
2017-07-21T06:52:31.772Z,1648
2017-07-21T06:53:41.393Z,1712
2017-07-21T06:54:51.002Z,1792
2017-07-21T06:56:00.358Z,1888
2017-07-21T06:57:09.973Z,2016
2017-07-21T06:58:19.935Z,2188
2017-07-21T06:59:29.876Z,2412
2017-07-21T07:00:39.491Z,2852
2017-07-21T07:01:49.110Z,5104
2017-07-21T07:02:59.052Z,8592
2017-07-21T07:04:09.029Z,18304
2017-07-21T07:05:19.258Z,14836
2017-07-21T07:06:29.530Z,12804
2017-07-21T07:07:39.485Z,14216
2017-07-21T07:08:49.121Z,18336
2017-07-21T07:09:59.363Z,29152
2017-07-21T07:11:09.590Z,38368
2017-07-21T07:12:19.516Z,39488
2017-07-21T07:13:29.464Z,40000
2017-07-21T07:14:39.447Z,44192
2017-07-21T07:15:49.071Z,41728
2017-07-21T07:16:59.020Z,41088
2017-07-21T07:18:09.290Z,46656
2017-07-21T07:19:19.214Z,31840
2017-07-21T07:20:29.445Z,15436
2017-07-21T07:21:39.669Z,10840
2017-07-21T07:22:49.303Z,10424
2017-07-21T07:23:59.539Z,6264
2017-07-21T07:25:09.194Z,7480
2017-07-21T07:26:19.134Z,10592
2017-07-21T07:27:29.366Z,9064
2017-07-21T07:28:38.681Z,4664
2017-07-21T07:29:48.286Z,10648
2017-07-21T07:30:58.236Z,26496
2017-07-21T07:32:07.868Z,17252
2017-07-21T07:33:17.789Z,10812
2017-07-21T07:34:27.718Z,14148
2017-07-21T07:35:37.646Z,8284
2017-07-21T07:36:47.565Z,28928
2017-07-21T07:37:57.504Z,8772
2017-07-21T07:39:07.425Z,5196
2017-07-21T07:40:17.038Z,7024
2017-07-21T07:41:27.263Z,4652
2017-07-21T07:42:37.178Z,4700
2017-07-21T07:43:47.087Z,5964
2017-07-21T07:44:56.400Z,5764
2017-07-21T07:46:06.313Z,4284
2017-07-21T07:47:16.221Z,3608
2017-07-21T07:48:26.440Z,5632
2017-07-21T07:49:36.680Z,4832
2017-07-21T07:50:46.601Z,3808
2017-07-21T07:51:56.516Z,3628
2017-07-21T07:53:06.127Z,3572
2017-07-21T07:54:16.053Z,3796
2017-07-21T07:55:25.972Z,55040
2017-07-21T07:56:36.206Z,5364
2017-07-21T07:57:45.511Z,4332
2017-07-21T07:58:55.124Z,7024
2017-07-21T08:00:04.737Z,42528
2017-07-21T08:01:14.665Z,55168
2017-07-21T08:02:24.574Z,55776
2017-07-21T08:03:34.961Z,52736
2017-07-21T08:04:44.905Z,51840
2017-07-21T08:05:54.521Z,53856
2017-07-21T08:07:03.518Z,53312
2017-07-21T08:08:13.748Z,54496
2017-07-21T08:09:23.971Z,55680
2017-07-21T08:10:33.904Z,50976
2017-07-21T08:11:43.851Z,49376
2017-07-21T08:12:53.764Z,52384
2017-07-21T08:14:03.684Z,54912
2017-07-21T08:15:13.298Z,20672
2017-07-21T08:16:22.926Z,19232
2017-07-21T08:17:32.860Z,29792
2017-07-21T08:18:42.774Z,62176
2017-07-21T08:19:52.689Z,42080
2017-07-21T08:21:02.611Z,60800
2017-07-21T08:22:12.849Z,49312
2017-07-21T08:23:23.098Z,59392
2017-07-21T08:24:33.014Z,62528
2017-07-21T08:25:43.231Z,61344
2017-07-21T08:26:52.838Z,61728
2017-07-21T08:28:02.754Z,59072
2017-07-21T08:29:12.695Z,59232
2017-07-21T08:30:22.610Z,9616
2017-07-21T08:31:32.846Z,12408
2017-07-21T08:32:43.077Z,61056
2017-07-21T08:33:52.762Z,22656
2017-07-21T08:35:02.398Z,41632
2017-07-21T08:36:12.319Z,11120
2017-07-21T08:37:22.273Z,60768
2017-07-21T08:38:32.508Z,22752
2017-07-21T08:39:42.743Z,65504
2017-07-21T08:40:52.373Z,66336
2017-07-21T08:42:02.304Z,58912
2017-07-21T08:43:12.227Z,55424
2017-07-21T08:44:21.875Z,56672
2017-07-21T08:45:31.796Z,58528
2017-07-21T08:46:41.420Z,62752
2017-07-21T08:47:51.039Z,65504
2017-07-21T08:49:00.677Z,63776
2017-07-21T08:50:10.669Z,63360
2017-07-21T08:51:20.283Z,65088
2017-07-21T08:52:30.196Z,65152
2017-07-21T08:53:40.123Z,63136
2017-07-21T08:54:50.046Z,60768
2017-07-21T08:55:59.983Z,55936
2017-07-21T08:57:09.900Z,57280
2017-07-21T08:58:20.136Z,41568
2017-07-21T08:59:30.365Z,15048
2017-07-21T09:00:40.624Z,6372
2017-07-21T09:01:50.566Z,5300
2017-07-21T09:03:00.188Z,4664
2017-07-21T09:04:09.832Z,4240
2017-07-21T09:05:20.066Z,3916
2017-07-21T09:06:30.024Z,3700
2017-07-21T09:07:39.706Z,3460
2017-07-21T09:08:49.942Z,3104
2017-07-21T09:10:00.174Z,2512
2017-07-21T09:11:10.098Z,2084
2017-07-21T09:12:19.729Z,1964
2017-07-21T09:13:29.351Z,1868
2017-07-21T09:14:39.273Z,1776
2017-07-21T09:15:48.874Z,1692
2017-07-21T09:16:58.826Z,1620
2017-07-21T09:18:08.752Z,1564
2017-07-21T09:19:18.978Z,1544
2017-07-21T09:20:28.289Z,1524
2017-07-21T09:21:38.209Z,1520
2017-07-21T09:22:48.146Z,1520
2017-07-21T09:23:58.068Z,1524
2017-07-21T09:25:07.984Z,1448
2017-07-21T09:26:17.601Z,1416
2017-07-21T09:27:27.828Z,1396
2017-07-21T09:28:37.587Z,1376
2017-07-21T09:29:47.833Z,1348
2017-07-21T09:30:58.057Z,1324
2017-07-21T09:32:07.970Z,1308
2017-07-21T09:33:17.267Z,1292
2017-07-21T09:34:26.606Z,1276
2017-07-21T09:35:36.539Z,1268
2017-07-21T09:36:45.848Z,1256
2017-07-21T09:37:55.491Z,1248
2017-07-21T09:39:05.146Z,1248
2017-07-21T09:40:14.759Z,1248
2017-07-21T09:41:24.424Z,1252
2017-07-21T09:42:34.341Z,1252
2017-07-21T09:43:43.963Z,1244
2017-07-21T09:44:53.885Z,1268
2017-07-21T09:46:03.847Z,1248
2017-07-21T09:47:14.073Z,1232
2017-07-21T09:48:24.332Z,1196
2017-07-21T09:49:34.576Z,1208
2017-07-21T09:50:43.908Z,1376
2017-07-21T09:51:53.838Z,1044
2017-07-21T09:53:04.063Z,1304
2017-07-21T09:54:13.989Z,1136
2017-07-21T09:55:23.908Z,948
2017-07-21T09:56:34.151Z,1256
2017-07-21T09:57:43.760Z,1456
2017-07-21T09:58:53.982Z,1268
2017-07-21T10:00:03.304Z,1252
2017-07-21T10:01:13.542Z,1372
2017-07-21T10:02:23.458Z,1288
2017-07-21T10:03:33.695Z,1236
2017-07-21T10:04:43.310Z,1192
2017-07-21T10:05:52.607Z,1180
2017-07-21T10:07:02.548Z,1172
2017-07-21T10:08:12.766Z,1176
2017-07-21T10:09:22.990Z,1156
2017-07-21T10:10:32.607Z,1132
2017-07-21T10:11:42.525Z,1120
2017-07-21T10:12:52.738Z,1104
2017-07-21T10:14:02.344Z,1100
2017-07-21T10:15:12.266Z,1100
2017-07-21T10:16:22.187Z,1092
2017-07-21T10:17:31.487Z,1080
2017-07-21T10:18:40.818Z,1072
2017-07-21T10:19:50.446Z,1064
2017-07-21T10:21:00.377Z,1052
2017-07-21T10:22:10.289Z,1048
2017-07-21T10:23:20.204Z,1040
2017-07-21T10:24:29.496Z,1032
2017-07-21T10:25:39.433Z,1032
2017-07-21T10:26:49.367Z,1028
2017-07-21T10:27:59.717Z,1024
2017-07-21T10:29:12.549Z,1016
2017-07-21T10:30:22.182Z,1008
2017-07-21T10:31:32.416Z,1004
2017-07-21T10:32:42.036Z,1000
2017-07-21T10:33:52.299Z,996
2017-07-21T10:35:02.213Z,992
2017-07-21T10:36:12.140Z,988
2017-07-21T10:37:22.358Z,980
2017-07-21T10:38:31.811Z,976
2017-07-21T10:39:41.744Z,972
2017-07-21T10:40:51.968Z,968
2017-07-21T10:42:01.895Z,956
2017-07-21T10:43:11.840Z,944
2017-07-21T10:44:22.063Z,936
2017-07-21T10:45:32.282Z,928
2017-07-21T10:46:42.217Z,928
2017-07-21T10:47:52.141Z,924
2017-07-21T10:49:02.057Z,924
2017-07-21T10:50:12.282Z,920
2017-07-21T10:51:22.193Z,916
2017-07-21T10:52:32.434Z,916
2017-07-21T10:53:42.048Z,908
2017-07-21T10:54:51.974Z,904
2017-07-21T10:56:02.218Z,904
2017-07-21T10:57:12.446Z,896
2017-07-21T10:58:22.673Z,904
2017-07-21T10:59:32.604Z,992
2017-07-21T11:00:41.605Z,964
2017-07-21T11:01:51.219Z,892
2017-07-21T11:03:01.141Z,912
2017-07-21T11:04:11.362Z,920
2017-07-21T11:05:20.979Z,956
2017-07-21T11:06:31.202Z,1036
2017-07-21T11:07:41.145Z,900
2017-07-21T11:08:50.765Z,908
2017-07-21T11:10:00.685Z,932
2017-07-21T11:11:10.912Z,904
2017-07-21T11:12:21.139Z,884
2017-07-21T11:13:31.357Z,888
2017-07-21T11:14:41.575Z,896
2017-07-21T11:15:51.191Z,904
2017-07-21T11:17:00.803Z,892
2017-07-21T11:18:10.720Z,880
2017-07-21T11:19:20.634Z,864
2017-07-21T11:20:30.260Z,856
2017-07-21T11:21:39.875Z,860
2017-07-21T11:22:50.102Z,868
2017-07-21T11:23:59.703Z,868
2017-07-21T11:25:08.996Z,876
2017-07-21T11:26:18.940Z,876
2017-07-21T11:27:28.862Z,884
2017-07-21T11:28:38.777Z,892
2017-07-21T11:29:49.058Z,888
2017-07-21T11:30:59.292Z,884
2017-07-21T11:32:09.228Z,888
2017-07-21T11:33:19.202Z,868
2017-07-21T11:34:28.511Z,876
2017-07-21T11:35:38.734Z,868
2017-07-21T11:36:48.662Z,852
2017-07-21T11:37:58.280Z,848
2017-07-21T11:39:08.511Z,848
2017-07-21T11:40:18.807Z,852
2017-07-21T11:41:28.730Z,856
2017-07-21T11:42:38.352Z,900
2017-07-21T11:43:47.991Z,764
2017-07-21T11:44:57.934Z,900
2017-07-21T11:46:07.838Z,876
2017-07-21T11:47:17.759Z,928
2017-07-21T11:48:27.368Z,908
2017-07-21T11:49:37.290Z,864
2017-07-21T11:50:46.902Z,868
2017-07-21T11:51:56.832Z,956
2017-07-21T11:53:06.465Z,1072
2017-07-21T11:54:16.443Z,1172
2017-07-21T11:55:26.362Z,1160
2017-07-21T11:56:36.615Z,1052
2017-07-21T11:57:46.853Z,1016
2017-07-21T11:58:57.465Z,1120
2017-07-21T12:00:07.373Z,1124
2017-07-21T12:01:17.291Z,1244
2017-07-21T12:02:26.954Z,1072
2017-07-21T12:03:36.574Z,964
2017-07-21T12:04:46.824Z,956
2017-07-21T12:05:57.220Z,1060
2017-07-21T12:07:07.452Z,1032
2017-07-21T12:08:17.665Z,832
2017-07-21T12:09:27.585Z,696
2017-07-21T12:10:37.494Z,740
2017-07-21T12:11:47.948Z,888
2017-07-21T12:12:57.909Z,908
2017-07-21T12:14:07.596Z,836
2017-07-21T12:15:17.524Z,720
2017-07-21T12:16:27.459Z,712
2017-07-21T12:17:37.386Z,880
2017-07-21T12:18:47.613Z,872
2017-07-21T12:19:57.535Z,860
2017-07-21T12:21:07.446Z,868
2017-07-21T12:22:17.688Z,888
2017-07-21T12:23:27.289Z,880
2017-07-21T12:24:37.230Z,844
2017-07-21T12:25:47.148Z,820
2017-07-21T12:26:57.070Z,808
2017-07-21T12:28:06.686Z,812
2017-07-21T12:29:16.612Z,812
2017-07-21T12:30:26.520Z,800
2017-07-21T12:31:36.771Z,796
2017-07-21T12:32:46.689Z,836
2017-07-21T12:33:56.911Z,924
2017-07-21T12:35:07.143Z,896
2017-07-21T12:36:16.751Z,856
2017-07-21T12:37:26.671Z,820
2017-07-21T12:38:36.896Z,796
2017-07-21T12:39:47.146Z,788
2017-07-21T12:40:56.904Z,732
2017-07-21T12:42:19.567Z,620
2017-07-21T12:43:29.182Z,744
2017-07-21T12:44:39.104Z,780
2017-07-21T12:45:49.007Z,800
2017-07-21T12:46:58.318Z,820
2017-07-21T12:48:08.249Z,824
2017-07-21T12:49:18.489Z,796
2017-07-21T12:50:28.093Z,664
2017-07-21T12:51:38.026Z,776
2017-07-21T12:52:47.977Z,792
2017-07-21T12:53:58.227Z,788
2017-07-21T12:55:07.515Z,784
2017-07-21T12:56:17.440Z,788
2017-07-21T12:57:27.347Z,784
2017-07-21T12:58:37.575Z,796
2017-07-21T12:59:47.192Z,796
2017-07-21T13:00:57.183Z,780
2017-07-21T13:02:07.426Z,844
2017-07-21T13:03:17.351Z,788
2017-07-21T13:04:27.283Z,780
2017-07-21T13:05:36.950Z,848
2017-07-21T13:06:46.862Z,644
2017-07-21T13:07:57.100Z,676
2017-07-21T13:09:07.349Z,760
2017-07-21T13:10:17.611Z,564
2017-07-21T13:11:27.529Z,652
2017-07-21T13:12:37.145Z,768
2017-07-21T13:13:47.071Z,704
2017-07-21T13:14:57.286Z,776
2017-07-21T13:16:06.899Z,764
2017-07-21T13:17:16.213Z,772
2017-07-21T13:18:26.448Z,756
2017-07-21T13:19:36.354Z,744
2017-07-21T13:20:45.659Z,744
2017-07-21T13:21:55.315Z,732
2017-07-21T13:23:05.540Z,748
2017-07-21T13:24:15.154Z,748
2017-07-21T13:25:24.755Z,740
2017-07-21T13:26:34.055Z,788
2017-07-21T13:27:43.675Z,772
2017-07-21T13:28:53.593Z,744
2017-07-21T13:30:03.504Z,728
2017-07-21T13:31:12.808Z,724
2017-07-21T13:32:22.449Z,720
2017-07-21T13:33:32.674Z,716
2017-07-21T13:34:42.903Z,708
2017-07-21T13:35:52.819Z,708
2017-07-21T13:37:03.051Z,712
2017-07-21T13:38:13.278Z,708
2017-07-21T13:39:23.499Z,716
2017-07-21T13:40:33.729Z,768
2017-07-21T13:41:43.654Z,816
2017-07-21T13:42:53.589Z,824
2017-07-21T13:44:03.513Z,744
2017-07-21T13:45:13.745Z,720
2017-07-21T13:46:23.972Z,712
2017-07-21T13:47:33.879Z,704
2017-07-21T13:48:43.786Z,700
2017-07-21T13:49:54.031Z,704
2017-07-21T13:51:04.284Z,708
2017-07-21T13:52:14.204Z,724
2017-07-21T13:53:23.503Z,708
2017-07-21T13:54:33.721Z,704
2017-07-21T13:55:43.321Z,696
2017-07-21T13:56:53.227Z,700
2017-07-21T13:58:03.445Z,708
2017-07-21T13:59:13.350Z,760
2017-07-21T14:00:22.642Z,756
2017-07-21T14:01:32.887Z,708
2017-07-21T14:02:42.804Z,700
2017-07-21T14:03:52.712Z,696
2017-07-21T14:05:02.945Z,732
2017-07-21T14:06:12.544Z,788
2017-07-21T14:07:22.465Z,812
2017-07-21T14:08:32.679Z,748
2017-07-21T14:09:42.602Z,744
2017-07-21T14:10:52.569Z,800
2017-07-21T14:12:01.873Z,768
2017-07-21T14:13:11.498Z,644
2017-07-21T14:14:21.417Z,716
2017-07-21T14:15:31.027Z,696
2017-07-21T14:16:41.279Z,696
2017-07-21T14:17:50.897Z,688
2017-07-21T14:19:00.830Z,716
2017-07-21T14:20:10.752Z,696
2017-07-21T14:21:20.667Z,728
2017-07-21T14:22:30.896Z,764
2017-07-21T14:23:41.120Z,820
2017-07-21T14:24:51.042Z,856
2017-07-21T14:26:01.270Z,884
2017-07-21T14:27:11.183Z,928
2017-07-21T14:28:20.795Z,860
2017-07-21T14:29:30.390Z,796
2017-07-21T14:30:39.994Z,784
2017-07-21T14:31:49.914Z,792
2017-07-21T14:32:59.818Z,812
2017-07-21T14:34:09.758Z,812
2017-07-21T14:35:19.990Z,744
2017-07-21T14:36:29.957Z,476
2017-07-21T14:37:40.182Z,596
2017-07-21T14:38:49.786Z,512
2017-07-21T14:40:00.007Z,536
2017-07-21T14:41:09.924Z,792
2017-07-21T14:42:19.834Z,756
2017-07-21T14:43:30.068Z,740
2017-07-21T14:44:39.995Z,672
2017-07-21T14:45:49.937Z,732
2017-07-21T14:46:59.862Z,752
2017-07-21T14:48:09.168Z,728
2017-07-21T14:49:19.074Z,712
2017-07-21T14:50:28.977Z,544
2017-07-21T14:51:38.891Z,692
2017-07-21T14:52:48.800Z,700
2017-07-21T14:53:58.698Z,664
2017-07-21T14:55:08.918Z,712
2017-07-21T14:56:18.517Z,684
2017-07-21T14:57:28.142Z,652
2017-07-21T14:58:38.359Z,644
2017-07-21T14:59:47.962Z,632
2017-07-21T15:00:57.262Z,616
2017-07-21T15:02:07.480Z,592
2017-07-21T15:03:17.093Z,624
2017-07-21T15:04:27.005Z,632
2017-07-21T15:05:36.308Z,632
2017-07-21T15:06:46.536Z,628
2017-07-21T15:07:56.144Z,620
2017-07-21T15:09:06.370Z,612
2017-07-21T15:10:16.282Z,608
2017-07-21T15:11:26.204Z,608
2017-07-21T15:12:36.117Z,612
2017-07-21T15:13:46.062Z,636
2017-07-21T15:14:56.298Z,704
2017-07-21T15:16:06.217Z,620
2017-07-21T15:17:16.135Z,612
2017-07-21T15:18:25.744Z,616
2017-07-21T15:19:35.036Z,616
2017-07-21T15:20:45.254Z,616
2017-07-21T15:21:55.478Z,628
2017-07-21T15:23:05.707Z,624
2017-07-21T15:24:14.709Z,644
2017-07-21T15:25:24.324Z,632
2017-07-21T15:26:34.231Z,544
2017-07-21T15:27:44.141Z,520
2017-07-21T15:28:54.045Z,472
2017-07-21T15:30:03.954Z,712
2017-07-21T15:31:13.582Z,648
2017-07-21T15:32:23.514Z,604
2017-07-21T15:33:33.758Z,616
2017-07-21T15:34:43.689Z,628
2017-07-21T15:35:53.003Z,628
2017-07-21T15:37:03.234Z,640
2017-07-21T15:38:12.833Z,616
2017-07-21T15:39:22.752Z,608
2017-07-21T15:40:32.667Z,608
2017-07-21T15:41:42.903Z,616
2017-07-21T15:42:52.513Z,600
2017-07-21T15:44:01.831Z,640
2017-07-21T15:45:11.744Z,592
2017-07-21T15:46:21.981Z,652
2017-07-21T15:47:31.897Z,628
2017-07-21T15:48:41.825Z,608
2017-07-21T15:49:51.428Z,456
2017-07-21T15:51:01.360Z,448
2017-07-21T15:52:10.963Z,600
2017-07-21T15:53:20.571Z,592
2017-07-21T15:54:30.182Z,592
2017-07-21T15:55:40.097Z,624
2017-07-21T15:56:50.017Z,648
2017-07-21T15:58:00.228Z,636
2017-07-21T15:59:10.464Z,616
2017-07-21T16:00:20.373Z,632
2017-07-21T16:01:30.288Z,620
2017-07-21T16:02:40.213Z,608
2017-07-21T16:03:49.516Z,608